Time;durP1;ratioP1;P1;durP2;ratioP2;P2;SDS_P1;SDS_P2;PMS_P1;PMS_P2;Temp;Humidity;BMP_temperature;BMP_pressure;BME280_temperature;BME280_humidity;BME280_pressure;Samples;Min_cycle;Max_cycle;Signal;HPM_P1;HPM_P2
2023/09/11 00:03:28;;;;;;;1.70;0.70;;;18.00;87.50;;;16.82;76.43;100257.50;10352105;28;98470;-89
2023/09/11 00:08:33;;;;;;;1.23;0.90;;;17.90;86.80;;;16.84;76.59;100272.38;10336358;28;96732;-89
2023/09/11 00:13:36;;;;;;;1.77;1.00;;;17.90;87.50;;;16.79;77.26;100277.56;10339011;28;96620;-89
2023/09/11 00:18:40;;;;;;;0.80;0.60;;;17.80;88.00;;;16.70;77.23;100278.78;10338632;28;96601;-89
2023/09/11 00:23:44;;;;;;;1.58;0.93;;;17.70;88.60;;;16.57;77.84;100271.50;10311861;28;96545;-89
2023/09/11 00:28:48;;;;;;;0.80;0.70;;;17.60;88.60;;;16.51;77.96;100268.84;10356311;28;96636;-90
2023/09/11 00:33:51;;;;;;;1.30;0.70;;;17.50;88.90;;;16.43;78.31;100269.00;10338378;28;96665;-88
2023/09/11 00:38:55;;;;;;;1.10;0.52;;;17.40;88.80;;;16.40;77.84;100269.44;10357840;28;97235;-89
2023/09/11 00:43:59;;;;;;;1.83;0.63;;;17.40;89.10;;;16.36;78.12;100266.31;10354196;28;96719;-89
2023/09/11 00:49:04;;;;;;;0.73;0.55;;;17.40;88.70;;;16.26;78.35;100256.00;10343580;28;96596;-88
2023/09/11 00:54:08;;;;;;;1.02;0.80;;;17.40;89.20;;;16.17;78.56;100256.38;10400387;28;96685;-87
2023/09/11 00:59:14;;;;;;;1.38;0.80;;;17.30;89.10;;;16.18;78.82;100266.06;10390819;28;96510;-87
2023/09/11 01:04:17;;;;;;;1.45;0.73;;;17.20;89.40;;;16.10;79.66;100264.41;10382187;28;96569;-87
2023/09/11 01:09:21;;;;;;;1.15;0.63;;;17.10;90.00;;;15.91;80.41;100246.44;10389830;28;96524;-89
2023/09/11 01:14:26;;;;;;;1.40;0.80;;;17.00;90.50;;;15.83;80.92;100244.72;10340059;28;96557;-89
2023/09/11 01:19:39;;;;;;;1.65;0.98;;;16.90;90.60;;;15.84;81.24;100259.81;10336740;28;98350;-89
2023/09/11 01:25:04;;;;;;;1.33;0.70;;;16.80;90.70;;;15.78;81.29;100253.41;10357046;28;96628;-89
2023/09/11 01:30:08;;;;;;;1.10;0.73;;;16.80;90.80;;;15.74;81.45;100262.84;10360953;28;96627;-89
2023/09/11 01:35:15;;;;;;;1.02;0.73;;;16.80;91.20;;;15.67;81.32;100250.47;10338110;28;96655;-89
2023/09/11 01:40:21;;;;;;;1.10;0.60;;;16.70;90.80;;;15.55;82.09;100250.16;10319424;28;96646;-88
2023/09/11 01:45:25;;;;;;;1.77;0.80;;;16.70;91.30;;;15.54;82.34;100256.56;10360956;28;97452;-89
2023/09/11 01:50:30;;;;;;;1.05;0.73;;;16.60;91.50;;;15.48;82.28;100252.00;10345091;28;96718;-89
2023/09/11 01:55:35;;;;;;;1.25;0.65;;;16.50;91.50;;;15.45;83.09;100250.53;10344174;28;96796;-89
2023/09/11 02:00:38;;;;;;;1.05;0.75;;;16.50;91.60;;;15.41;82.71;100246.59;10352242;28;96648;-89
2023/09/11 02:05:44;;;;;;;0.75;0.60;;;16.50;91.40;;;15.40;83.17;100255.63;10361076;28;98008;-89
2023/09/11 02:10:47;;;;;;;0.85;0.60;;;16.50;91.40;;;15.34;83.47;100250.25;10345174;28;97030;-89
2023/09/11 02:15:51;;;;;;;1.10;0.50;;;16.50;91.60;;;15.32;83.50;100252.31;10344165;28;96713;-88
2023/09/11 02:20:54;;;;;;;1.15;0.57;;;16.40;91.80;;;15.29;84.00;100250.84;10356745;28;96687;-89
2023/09/11 02:25:59;;;;;;;0.80;0.60;;;16.40;91.90;;;15.17;84.09;100231.00;10308104;28;96413;-89
2023/09/11 02:31:03;;;;;;;1.02;0.70;;;16.30;92.00;;;15.16;84.46;100243.56;10359734;28;96545;-89
2023/09/11 02:36:07;;;;;;;1.13;0.70;;;16.30;92.20;;;15.06;84.73;100243.09;10360485;28;96531;-89
2023/09/11 02:41:11;;;;;;;0.80;0.50;;;16.20;92.80;;;15.02;85.06;100239.16;10361866;28;97321;-89
2023/09/11 02:46:14;;;;;;;1.48;0.60;;;16.10;92.60;;;14.98;85.51;100243.22;10352455;28;96995;-88
2023/09/11 02:51:19;;;;;;;1.85;1.13;;;16.00;92.90;;;14.93;85.64;100232.28;10342007;28;96544;-89
2023/09/11 02:56:25;;;;;;;1.05;0.82;;;16.00;92.80;;;14.95;85.58;100239.09;10359022;28;96722;-89
2023/09/11 03:01:29;;;;;;;1.15;0.88;;;16.00;92.90;;;14.95;85.64;100232.94;10338681;28;98255;-89
2023/09/11 03:06:33;;;;;;;1.17;0.70;;;16.00;92.80;;;14.94;85.72;100242.00;10356513;28;96710;-89
2023/09/11 03:11:37;;;;;;;1.75;0.88;;;16.00;93.20;;;14.90;86.19;100246.06;10301524;28;96633;-89
2023/09/11 03:16:43;;;;;;;1.88;0.70;;;16.00;93.60;;;14.86;86.56;100248.28;10343757;28;97406;-88
2023/09/11 03:21:47;;;;;;;1.00;0.60;;;15.90;93.60;;;14.72;86.59;100238.53;10360933;28;96612;-89
2023/09/11 03:26:50;;;;;;;0.85;0.68;;;15.90;94.10;;;14.73;87.96;100246.34;10347179;28;97535;-90
2023/09/11 03:31:54;;;;;;;2.72;0.98;;;15.80;94.90;;;14.71;88.49;100247.56;10329952;28;96582;-90
2023/09/11 03:36:57;;;;;;;1.33;0.63;;;15.80;94.80;;;14.74;88.54;100233.78;10336559;28;96476;-90
2023/09/11 03:42:01;;;;;;;1.20;0.80;;;15.80;94.80;;;14.87;88.58;100244.63;10327303;28;96633;-91
2023/09/11 03:47:04;;;;;;;1.67;0.82;;;15.90;94.70;;;14.82;88.29;100219.47;10340008;28;96578;-90
2023/09/11 03:52:08;;;;;;;1.10;0.60;;;16.00;94.80;;;14.90;88.12;100232.69;10356629;28;96710;-91
2023/09/11 03:57:12;;;;;;;1.20;0.73;;;15.90;94.90;;;14.84;88.02;100225.44;10340160;28;97588;-90
2023/09/11 04:02:15;;;;;;;0.80;0.70;;;15.90;95.10;;;14.78;88.18;100212.84;10349269;28;97424;-90
2023/09/11 04:07:19;;;;;;;1.58;0.75;;;15.90;95.00;;;14.85;88.28;100227.91;10339900;28;96547;-91
2023/09/11 04:12:23;;;;;;;0.57;0.55;;;15.90;94.80;;;14.89;88.99;100223.00;10370169;28;97051;-89
2023/09/11 04:17:27;;;;;;;1.80;0.90;;;16.00;95.10;;;14.84;89.16;100210.22;10328825;28;96641;-90
2023/09/11 04:22:31;;;;;;;1.13;0.70;;;16.00;95.10;;;14.85;89.23;100213.72;10346429;28;98444;-89
2023/09/11 04:27:35;;;;;;;0.82;0.70;;;16.10;95.10;;;14.89;89.01;100215.81;10333601;28;96676;-89
2023/09/11 04:32:39;;;;;;;0.95;0.80;;;16.10;95.40;;;14.86;89.33;100226.88;10334416;28;96938;-89
2023/09/11 04:37:43;;;;;;;1.10;0.70;;;16.00;95.60;;;14.82;89.42;100217.63;10335209;28;98229;-89
2023/09/11 04:42:47;;;;;;;1.20;0.60;;;15.90;95.60;;;14.85;89.57;100224.41;10340149;28;96701;-88
2023/09/11 04:47:50;;;;;;;0.88;0.50;;;16.00;95.80;;;14.88;89.93;100216.84;10347317;28;97493;-88
2023/09/11 04:52:56;;;;;;;0.90;0.60;;;16.00;95.90;;;14.83;90.08;100213.91;10352195;28;96638;-88
2023/09/11 04:57:59;;;;;;;1.35;0.70;;;15.90;96.20;;;14.96;90.41;100224.72;10351992;28;96586;-89
2023/09/11 05:03:03;;;;;;;2.33;0.85;;;16.00;96.10;;;15.07;90.41;100219.84;10347634;28;98401;-90
2023/09/11 05:08:08;;;;;;;1.08;0.70;;;16.10;96.20;;;15.18;90.78;100216.63;10348171;28;96661;-90
2023/09/11 05:13:11;;;;;;;1.08;0.68;;;16.20;96.20;;;15.29;90.46;100213.34;10324952;28;98704;-90
2023/09/11 05:18:15;;;;;;;0.75;0.60;;;16.40;96.20;;;15.44;90.35;100213.25;10340278;28;97078;-90
2023/09/11 05:23:18;;;;;;;0.95;0.70;;;16.50;96.20;;;15.55;90.29;100210.00;10337786;28;98715;-89
2023/09/11 05:28:22;;;;;;;1.10;0.65;;;16.60;96.00;;;15.68;89.99;100212.75;10333292;28;96540;-91
2023/09/11 05:33:26;;;;;;;2.00;0.77;;;16.80;95.90;;;15.85;90.13;100207.03;10357782;28;97522;-90
2023/09/11 05:38:29;;;;;;;1.05;0.70;;;17.00;96.00;;;16.04;89.62;100209.75;10351325;28;98442;-91
2023/09/11 05:43:33;;;;;;;0.80;0.50;;;17.10;96.20;;;16.14;89.08;100197.81;10340198;28;97100;-90
2023/09/11 05:48:37;;;;;;;1.10;0.70;;;17.30;96.20;;;16.38;88.75;100218.69;10358769;28;96950;-91
2023/09/11 05:53:41;;;;;;;1.15;0.55;;;17.40;96.00;;;16.54;88.17;100212.06;10340558;28;97047;-91
2023/09/11 05:58:45;;;;;;;1.77;0.80;;;17.60;95.80;;;16.73;88.30;100205.94;10353872;28;97555;-90
2023/09/11 06:03:49;;;;;;;1.05;0.80;;;17.80;95.60;;;16.94;88.10;100198.66;10352812;28;98630;-90
2023/09/11 06:08:54;;;;;;;1.00;0.60;;;18.00;95.50;;;17.18;87.86;100202.53;10354708;28;96509;-90
2023/09/11 06:13:58;;;;;;;1.95;0.98;;;18.20;95.40;;;17.41;87.47;100205.56;10361371;28;96534;-90
2023/09/11 06:19:02;;;;;;;1.20;0.80;;;18.50;95.30;;;17.57;86.67;100190.81;10343981;28;98169;-90
2023/09/11 06:24:06;;;;;;;0.82;0.70;;;18.70;95.20;;;17.86;85.48;100192.16;10361063;28;96521;-91
2023/09/11 06:29:13;;;;;;;1.88;0.60;;;18.90;95.00;;;18.14;85.32;100191.78;10341319;28;96675;-91
2023/09/11 06:34:17;;;;;;;1.42;0.88;;;19.20;94.90;;;18.36;85.21;100190.38;10347380;28;98270;-91
2023/09/11 06:39:21;;;;;;;2.20;0.93;;;19.50;94.70;;;18.75;84.19;100201.03;10344015;28;97073;-91
2023/09/11 06:44:25;;;;;;;1.80;0.70;;;19.80;94.40;;;18.99;82.72;100190.22;10358081;28;96647;-91
2023/09/11 06:49:28;;;;;;;1.05;0.68;;;20.10;94.00;;;19.35;81.43;100201.25;10341666;28;98949;-92
2023/09/11 06:54:34;;;;;;;2.42;1.30;;;20.40;93.80;;;19.61;80.50;100192.88;10362986;28;96628;-91
2023/09/11 06:59:38;;;;;;;1.23;0.88;;;20.70;93.50;;;19.90;79.29;100207.41;10339159;28;96731;-92
2023/09/11 07:04:43;;;;;;;1.00;0.60;;;21.00;93.20;;;20.13;78.17;100209.38;10330611;28;96665;-92
2023/09/11 07:09:48;;;;;;;1.17;0.60;;;21.20;92.90;;;20.39;77.07;100210.00;10358094;28;96772;-91
2023/09/11 07:14:54;;;;;;;1.40;1.02;;;21.50;92.60;;;20.55;75.52;100209.38;10341718;28;97136;-91
2023/09/11 07:19:58;;;;;;;1.27;0.85;;;21.70;92.20;;;20.75;74.27;100214.41;10325008;28;96766;-91
2023/09/11 07:25:03;;;;;;;1.58;0.98;;;21.90;91.90;;;20.99;73.88;100210.69;10354280;28;97279;-91
2023/09/11 07:30:09;;;;;;;1.27;0.88;;;22.10;91.70;;;21.20;72.37;100208.41;10331524;28;97275;-92
2023/09/11 07:35:13;;;;;;;1.58;0.68;;;22.40;91.40;;;21.46;71.96;100209.81;10342847;28;96622;-92
2023/09/11 07:40:17;;;;;;;1.63;0.77;;;22.60;91.10;;;21.70;70.65;100210.56;10358218;28;96784;-91
2023/09/11 07:45:23;;;;;;;2.00;1.00;;;22.90;90.70;;;21.96;69.68;100210.00;10355700;28;97333;-92
2023/09/11 07:50:28;;;;;;;0.90;0.70;;;23.10;90.50;;;22.24;69.22;100205.63;10340984;28;96626;-92
2023/09/11 07:55:37;;;;;;;2.47;1.00;;;23.40;90.20;;;22.52;67.23;100202.88;10339335;28;96677;-92
2023/09/11 08:00:40;;;;;;;1.58;0.75;;;23.70;89.50;;;22.79;66.80;100204.88;10351003;28;96660;-92
2023/09/11 08:05:44;;;;;;;0.68;0.68;;;23.90;88.80;;;23.01;66.48;100188.72;10316684;28;96520;-92
2023/09/11 08:10:48;;;;;;;1.42;1.10;;;24.20;88.30;;;23.34;67.37;100190.53;10311920;28;96542;-92
2023/09/11 08:15:53;;;;;;;6.18;1.35;;;24.50;88.20;;;23.58;64.53;100170.22;10330713;28;97392;-92
2023/09/11 08:20:56;;;;;;;0.98;0.82;;;24.80;86.90;;;23.91;63.01;100190.94;10330927;28;96640;-92
2023/09/11 08:26:04;;;;;;;3.47;1.08;;;25.00;85.80;;;24.19;62.20;100186.31;10340413;28;96642;-92
2023/09/11 08:31:07;;;;;;;0.43;0.35;;;25.30;85.60;;;24.47;59.55;100177.06;10354477;28;98107;-92
2023/09/11 08:36:11;;;;;;;0.90;0.70;;;25.50;83.60;;;24.77;58.86;100180.00;10334116;28;97462;-92
2023/09/11 08:41:19;;;;;;;1.20;0.65;;;25.80;83.00;;;25.05;57.35;100173.38;10340878;28;96735;-92
2023/09/11 08:46:23;;;;;;;2.03;1.00;;;26.10;81.90;;;25.25;55.87;100164.53;10328809;28;98416;-92
2023/09/11 08:51:54;;;;;;;1.65;0.75;;;26.30;81.10;;;25.46;56.10;100165.41;10339870;28;96659;-93
2023/09/11 08:56:59;;;;;;;1.42;0.95;;;26.50;80.30;;;25.67;55.36;100154.56;10335979;28;96700;-92
2023/09/11 09:02:04;;;;;;;1.30;0.98;;;26.80;79.90;;;25.84;54.35;100150.56;10352152;28;97610;-93
2023/09/11 09:07:09;;;;;;;1.42;0.93;;;27.00;79.20;;;26.15;53.08;100150.63;10356193;28;96835;-92
2023/09/11 09:12:13;;;;;;;1.40;0.93;;;27.30;78.50;;;26.60;51.85;100149.78;10335946;28;98540;-93
2023/09/11 09:17:17;;;;;;;1.58;0.90;;;27.70;77.60;;;26.92;50.44;100143.97;10334772;28;97106;-92
2023/09/11 09:22:21;;;;;;;1.38;1.05;;;28.00;76.00;;;27.12;49.20;100125.97;10333087;28;98878;-93
2023/09/11 09:27:28;;;;;;;1.05;0.73;;;28.20;75.30;;;27.42;48.89;100136.72;10352151;28;97382;-92
2023/09/11 09:32:35;;;;;;;1.83;0.70;;;28.50;74.20;;;27.53;47.36;100132.03;10345158;28;96720;-91
2023/09/11 09:37:40;;;;;;;1.10;0.80;;;28.70;73.20;;;27.74;48.75;100121.81;10325822;28;98179;-93
2023/09/11 09:42:44;;;;;;;1.42;0.75;;;28.90;73.10;;;28.15;47.48;100127.78;10354275;28;96585;-93
2023/09/11 09:48:08;;;;;;;1.85;1.50;;;29.30;72.00;;;28.54;45.71;100111.31;10337955;28;97114;-91
2023/09/11 09:53:22;;;;;;;1.73;0.75;;;29.60;70.80;;;28.73;44.70;100114.16;10355940;28;97383;-91
2023/09/11 09:58:28;;;;;;;1.50;0.90;;;29.90;69.70;;;28.87;44.28;100097.03;10351591;28;96851;-92
2023/09/11 10:03:47;;;;;;;1.15;0.70;;;30.10;68.30;;;29.23;43.30;100089.22;10340486;28;96775;-91
2023/09/11 10:09:12;;;;;;;1.75;1.08;;;30.30;67.60;;;29.43;42.38;100091.66;10340891;28;98758;-91
2023/09/11 10:14:18;;;;;;;1.38;0.95;;;30.50;66.70;;;29.57;40.38;100067.97;10359623;28;96804;-91
2023/09/11 10:19:24;;;;;;;1.90;1.00;;;30.60;65.70;;;29.82;41.05;100065.94;10335585;28;97410;-92
2023/09/11 10:24:28;;;;;;;1.15;0.82;;;30.80;64.90;;;30.00;38.78;100051.38;10343730;28;97929;-92
2023/09/11 10:29:48;;;;;;;2.22;1.10;;;31.00;62.80;;;30.19;38.20;100047.78;10348862;28;96604;-92
2023/09/11 10:34:52;;;;;;;1.27;0.65;;;31.20;62.40;;;30.35;37.85;100043.66;10352006;28;96416;-92
2023/09/11 10:39:59;;;;;;;1.33;0.80;;;31.30;60.70;;;30.40;36.86;100029.81;10384867;28;96341;-90
2023/09/11 10:45:03;;;;;;;1.75;0.80;;;31.50;60.60;;;30.30;37.74;100038.28;10371205;28;96378;-89
2023/09/11 10:50:09;;;;;;;1.00;0.70;;;31.40;59.80;;;30.45;36.08;100029.72;10346313;28;96524;-90
2023/09/11 10:55:15;;;;;;;1.63;1.00;;;31.50;57.50;;;30.58;35.74;100023.44;10366622;28;96504;-92
2023/09/11 11:00:21;;;;;;;1.17;0.82;;;31.60;58.60;;;30.75;35.43;100024.78;10352690;28;96730;-91
2023/09/11 11:05:26;;;;;;;1.75;0.90;;;31.80;58.80;;;30.92;34.60;100022.22;10343433;28;99086;-91
2023/09/11 11:10:32;;;;;;;1.08;0.73;;;31.90;57.10;;;31.12;34.42;100021.75;10340523;28;97917;-92
2023/09/11 11:15:36;;;;;;;1.30;0.70;;;32.20;56.80;;;31.39;34.19;100022.84;10352159;28;96678;-93
2023/09/11 11:21:06;;;;;;;1.52;0.93;;;32.30;56.10;;;31.59;34.10;100019.59;10330280;28;96709;-92
2023/09/11 11:26:10;;;;;;;2.00;1.00;;;32.60;56.20;;;31.64;32.53;100003.00;10341099;28;96766;-93
2023/09/11 11:31:19;;;;;;;1.52;0.85;;;32.70;55.80;;;31.62;32.97;100008.00;10340559;28;96609;-92
2023/09/11 11:36:26;;;;;;;0.95;0.80;;;32.60;54.90;;;31.69;33.13;100005.63;10331832;28;96512;-94
2023/09/11 11:41:30;;;;;;;1.10;0.70;;;32.60;53.70;;;31.91;32.33;99998.53;10335068;28;96934;-94
2023/09/11 11:46:35;;;;;;;1.48;0.90;;;32.80;54.00;;;31.95;32.09;99983.00;10354907;28;97985;-94
2023/09/11 11:51:44;;;;;;;1.08;0.80;;;32.90;53.30;;;32.10;31.01;99990.03;10343254;28;96552;-94
2023/09/11 11:56:47;;;;;;;1.33;0.57;;;33.00;52.40;;;32.11;30.67;99964.97;10337365;28;96765;-93
2023/09/11 12:01:51;;;;;;;1.45;0.75;;;33.20;52.50;;;32.35;30.01;99970.13;10354161;28;98184;-92
2023/09/11 12:06:57;;;;;;;0.90;0.50;;;33.30;51.70;;;32.40;30.05;99958.16;10356014;28;96508;-92
2023/09/11 12:12:04;;;;;;;1.02;0.60;;;33.40;51.40;;;32.58;29.65;99959.03;10322059;28;98318;-92
2023/09/11 12:17:09;;;;;;;1.87;0.87;;;33.50;51.60;;;32.67;30.29;99963.38;10340955;28;98048;-94
2023/09/11 12:22:13;;;;;;;0.73;0.52;;;33.60;51.40;;;32.63;29.71;99953.38;10357331;28;96540;-93
2023/09/11 12:27:17;;;;;;;1.20;0.85;;;33.50;50.00;;;32.53;29.38;99959.16;10352394;28;98373;-93
2023/09/11 12:32:21;;;;;;;1.67;0.77;;;33.50;51.10;;;32.44;29.87;99950.88;10332561;28;97156;-94
2023/09/11 12:37:34;;;;;;;1.27;0.80;;;33.30;51.10;;;32.22;30.25;99949.84;10341459;28;96483;-93
2023/09/11 12:42:38;;;;;;;1.02;0.70;;;33.10;51.30;;;32.17;30.57;99947.22;10347455;28;96561;-91
2023/09/11 12:47:41;;;;;;;0.75;0.60;;;33.00;51.30;;;32.13;29.94;99940.72;10354596;28;96545;-93
2023/09/11 12:52:45;;;;;;;1.33;0.70;;;33.00;51.30;;;32.07;30.38;99942.00;10319681;28;96441;-92
2023/09/11 12:57:51;;;;;;;1.35;0.80;;;33.00;51.20;;;31.89;30.38;99932.06;10333405;28;98408;-92
2023/09/11 13:02:59;;;;;;;1.35;0.80;;;32.90;50.80;;;31.73;31.42;99925.31;10334962;28;96570;-92
2023/09/11 13:08:03;;;;;;;0.73;0.50;;;32.60;51.20;;;31.58;30.19;99919.09;10339435;28;98117;-92
2023/09/11 13:13:06;;;;;;;0.85;0.60;;;32.50;49.90;;;31.51;29.74;99915.19;10355402;28;97683;-92
2023/09/11 13:18:16;;;;;;;2.10;0.60;;;32.40;49.60;;;31.51;29.42;99920.69;10329774;28;97492;-93
2023/09/11 13:23:20;;;;;;;0.98;0.68;;;32.30;49.70;;;31.43;30.29;99917.59;10319300;28;97251;-94
2023/09/11 13:28:24;;;;;;;1.17;0.77;;;32.20;49.90;;;31.37;31.27;99912.53;10362879;28;96698;-92
2023/09/11 13:33:28;;;;;;;1.48;0.70;;;32.20;50.50;;;31.31;30.32;99903.63;10345095;28;97353;-92
2023/09/11 13:38:31;;;;;;;0.77;0.60;;;32.20;50.10;;;31.21;30.08;99890.09;10344628;28;96608;-92
2023/09/11 13:43:35;;;;;;;0.93;0.60;;;32.10;50.10;;;31.30;30.10;99901.16;10349711;28;97337;-92
2023/09/11 13:48:39;;;;;;;0.57;0.52;;;32.10;50.00;;;31.21;30.48;99881.06;10341943;28;96655;-93
2023/09/11 13:53:43;;;;;;;0.73;0.43;;;32.10;50.10;;;31.17;29.58;99887.16;10343989;28;96538;-93
2023/09/11 13:58:47;;;;;;;1.10;0.70;;;32.00;49.40;;;31.16;30.56;99885.53;10327901;28;96595;-91
2023/09/11 14:03:52;;;;;;;1.92;0.75;;;32.00;49.70;;;31.21;29.79;99884.63;10357143;28;96611;-92
2023/09/11 14:08:56;;;;;;;1.58;0.88;;;32.00;49.60;;;31.22;29.65;99875.25;10360176;28;97403;-91
2023/09/11 14:13:59;;;;;;;1.13;0.68;;;32.00;49.50;;;31.16;29.59;99862.78;10359929;28;96604;-92
2023/09/11 14:19:07;;;;;;;0.75;0.50;;;32.00;49.60;;;31.18;30.27;99861.34;10351928;28;96665;-92
2023/09/11 14:24:11;;;;;;;1.50;1.02;;;32.10;49.70;;;31.21;30.32;99867.34;10340078;28;96612;-92
2023/09/11 14:29:15;;;;;;;2.25;0.70;;;32.20;49.90;;;31.21;29.67;99848.13;10339271;28;97230;-93
2023/09/11 14:34:19;;;;;;;1.65;0.70;;;32.20;49.00;;;31.27;29.65;99863.38;10359073;28;96454;-93
2023/09/11 14:39:23;;;;;;;0.50;0.50;;;32.30;49.20;;;31.31;29.45;99856.16;10340278;28;97003;-93
2023/09/11 14:44:27;;;;;;;1.10;0.68;;;32.40;49.00;;;31.44;30.25;99849.75;10361169;28;96732;-93
2023/09/11 14:49:30;;;;;;;0.68;0.40;;;32.50;49.40;;;31.63;31.07;99853.06;10342005;28;96717;-93
2023/09/11 14:54:34;;;;;;;0.60;0.60;;;32.60;49.90;;;31.76;28.23;99845.84;10360345;28;96467;-92
2023/09/11 14:59:53;;;;;;;1.15;0.60;;;33.00;49.00;;;32.17;28.86;99845.50;10361601;28;96540;-92
2023/09/11 15:04:57;;;;;;;0.68;0.60;;;33.40;48.80;;;32.66;27.41;99845.44;10340966;28;98714;-92
2023/09/11 15:10:01;;;;;;;0.50;0.50;;;34.10;48.50;;;33.36;27.54;99835.16;10342037;28;98791;-92
2023/09/11 15:15:06;;;;;;;1.23;0.55;;;35.00;48.20;;;33.78;25.50;99834.22;10362528;28;96487;-94
2023/09/11 15:20:10;;;;;;;0.93;0.60;;;35.70;46.40;;;34.24;25.84;99839.97;10354567;28;97081;-92
2023/09/11 15:25:13;;;;;;;1.00;0.65;;;36.10;46.40;;;34.49;24.90;99840.97;10331323;28;97112;-92
2023/09/11 15:30:17;;;;;;;1.58;0.70;;;36.40;46.30;;;34.82;24.44;99841.00;10354973;28;96594;-92
2023/09/11 15:35:22;;;;;;;1.08;0.55;;;36.60;46.20;;;34.94;24.21;99841.09;10355403;28;97051;-94
2023/09/11 15:40:25;;;;;;;0.80;0.60;;;36.80;45.80;;;35.02;25.10;99842.13;10341452;28;96592;-93
2023/09/11 15:45:28;;;;;;;1.10;0.60;;;36.70;45.60;;;34.85;26.03;99843.91;10348842;28;96668;-92
2023/09/11 15:50:32;;;;;;;1.48;0.90;;;36.50;45.90;;;34.56;25.20;99831.00;10355948;28;96594;-92
2023/09/11 15:55:35;;;;;;;1.70;0.98;;;36.20;45.50;;;34.06;25.85;99829.03;10354722;28;96708;-92
2023/09/11 16:00:39;;;;;;;0.88;0.60;;;35.60;45.80;;;33.33;26.74;99833.88;10373246;28;98595;-92
2023/09/11 16:05:43;;;;;;;0.60;0.47;;;34.80;46.10;;;32.60;28.03;99831.03;10356328;28;96956;-92
2023/09/11 16:10:47;;;;;;;1.00;0.70;;;33.80;46.80;;;31.77;29.54;99817.25;10355593;28;96514;-92
2023/09/11 16:15:51;;;;;;;1.17;0.73;;;32.80;47.70;;;30.97;31.54;99810.03;10353164;28;97363;-93
2023/09/11 16:20:55;;;;;;;1.58;0.80;;;32.00;49.00;;;30.27;33.38;99816.88;10323734;28;96359;-93
2023/09/11 16:25:58;;;;;;;1.10;0.60;;;31.20;50.30;;;29.63;33.68;99832.38;10355405;28;97011;-92
2023/09/11 16:31:02;;;;;;;0.55;0.43;;;30.50;50.60;;;29.03;34.89;99833.19;10355381;28;96620;-94
2023/09/11 16:36:06;;;;;;;1.58;0.60;;;30.00;51.30;;;28.49;35.39;99824.41;10316145;28;97403;-94
2023/09/11 16:41:10;;;;;;;1.08;0.68;;;29.50;51.60;;;27.99;36.07;99823.94;10357011;28;96643;-94
2023/09/11 16:46:13;;;;;;;1.90;0.65;;;29.00;51.90;;;27.63;36.55;99828.16;10336774;28;98498;-94
2023/09/11 16:51:17;;;;;;;0.63;0.32;;;28.70;52.30;;;27.23;36.81;99822.03;10353557;28;97611;-94
2023/09/11 16:56:20;;;;;;;0.90;0.60;;;28.30;52.60;;;26.98;37.65;99833.13;10357970;28;96647;-93
2023/09/11 17:01:24;;;;;;;0.77;0.47;;;28.00;53.00;;;26.67;37.79;99822.44;10350098;28;96912;-93
2023/09/11 17:06:28;;;;;;;1.08;0.65;;;27.70;53.40;;;26.41;38.41;99830.78;10354596;28;96511;-93
2023/09/11 17:11:32;;;;;;;1.05;0.80;;;27.50;53.70;;;26.13;39.15;99832.25;10324285;28;96694;-93
2023/09/11 17:16:35;;;;;;;0.80;0.55;;;27.20;53.90;;;25.89;39.27;99837.53;10360840;28;96552;-94
2023/09/11 17:21:39;;;;;;;1.20;0.55;;;27.00;54.20;;;25.66;40.30;99840.84;10342980;28;97083;-94
2023/09/11 17:26:43;;;;;;;1.20;0.80;;;26.70;54.70;;;25.48;41.19;99844.13;10345363;28;96633;-95
2023/09/11 17:31:47;;;;;;;0.80;0.55;;;26.50;55.60;;;25.20;41.64;99843.66;10329561;28;97584;-94
2023/09/11 17:36:50;;;;;;;1.00;0.63;;;26.20;56.10;;;24.87;43.05;99846.84;10346723;28;96720;-94
2023/09/11 17:41:54;;;;;;;1.38;0.70;;;25.80;57.10;;;24.57;43.28;99851.16;10358685;28;96565;-93
2023/09/11 17:46:58;;;;;;;0.82;0.50;;;25.40;57.40;;;24.30;43.72;99856.78;10344332;28;96900;-94
2023/09/11 17:52:01;;;;;;;1.23;0.68;;;25.20;57.90;;;24.04;44.06;99855.84;10343216;28;97556;-95
2023/09/11 17:57:05;;;;;;;0.45;0.43;;;24.90;57.80;;;23.94;44.44;99870.19;10353389;28;98641;-93
2023/09/11 18:02:10;;;;;;;1.88;1.02;;;24.80;58.20;;;23.77;45.88;99856.00;10327979;28;97898;-93
2023/09/11 18:07:17;;;;;;;2.05;0.98;;;24.80;59.20;;;23.62;46.58;99870.25;10343891;28;97081;-93
2023/09/11 18:12:20;;;;;;;2.75;1.40;;;24.60;59.80;;;23.46;48.27;99880.19;10345036;28;97145;-93
2023/09/11 18:17:24;;;;;;;3.33;1.33;;;24.40;60.50;;;23.27;47.48;99873.53;10333286;28;97208;-93
2023/09/11 18:22:28;;;;;;;12.05;1.30;;;24.20;60.60;;;23.11;49.19;99880.72;10337342;28;96542;-94
2023/09/11 18:27:35;;;;;;;13.43;2.15;;;24.10;61.10;;;23.00;48.93;99894.44;10360056;28;97587;-93
2023/09/11 18:32:39;;;;;;;3.97;1.60;;;24.00;61.20;;;22.89;49.62;99888.09;10353587;28;96641;-93
2023/09/11 18:37:43;;;;;;;2.47;1.55;;;23.90;61.70;;;22.81;49.87;99902.88;10340813;28;99586;-93
2023/09/11 18:42:46;;;;;;;3.83;1.67;;;23.70;62.30;;;22.56;51.24;99898.03;10349567;28;96683;-94
2023/09/11 18:47:52;;;;;;;2.05;1.13;;;23.60;63.80;;;22.38;52.04;99909.19;10352877;28;98539;-92
2023/09/11 18:52:56;;;;;;;3.47;1.70;;;23.30;64.60;;;22.14;52.66;99908.63;10357919;28;97375;-93
2023/09/11 18:58:00;;;;;;;2.33;1.30;;;23.10;65.40;;;22.03;53.59;99915.75;10358663;28;96789;-92
2023/09/11 19:03:03;;;;;;;6.22;2.08;;;22.90;65.40;;;21.96;53.03;99912.41;10365864;28;96618;-93
2023/09/11 19:08:07;;;;;;;5.75;2.35;;;22.80;65.30;;;21.88;53.09;99907.41;10346399;28;98138;-93
2023/09/11 19:13:12;;;;;;;9.07;2.25;;;22.80;65.60;;;21.82;53.56;99908.38;10365208;28;96705;-93
2023/09/11 19:18:16;;;;;;;4.95;2.00;;;22.70;65.80;;;21.78;53.27;99904.56;10367656;28;97581;-90
2023/09/11 19:23:19;;;;;;;1.80;1.10;;;22.70;65.80;;;21.71;53.44;99910.16;10380895;28;96556;-90
2023/09/11 19:28:24;;;;;;;1.60;1.10;;;22.70;66.20;;;21.72;52.93;99910.97;10401724;28;96449;-92
2023/09/11 19:33:32;;;;;;;2.03;1.13;;;22.70;65.90;;;21.69;54.06;99919.56;10389206;28;96581;-90
2023/09/11 19:38:36;;;;;;;2.75;1.17;;;22.60;66.70;;;21.60;53.75;99920.00;10359712;28;97566;-91
2023/09/11 19:43:40;;;;;;;1.35;0.82;;;22.50;66.40;;;21.52;54.35;99920.38;10331244;28;98079;-91
2023/09/11 19:48:45;;;;;;;3.10;1.13;;;22.40;66.90;;;21.36;55.04;99905.81;10332784;28;96715;-91
2023/09/11 19:53:49;;;;;;;4.53;2.00;;;22.30;67.30;;;21.27;55.86;99909.94;10346413;28;96613;-90
2023/09/11 19:58:53;;;;;;;4.18;1.70;;;22.20;67.90;;;21.12;56.23;99901.59;10354132;28;98673;-91
2023/09/11 20:03:57;;;;;;;2.08;1.20;;;22.10;68.10;;;21.01;56.47;99908.72;10356100;28;97385;-91
2023/09/11 20:09:00;;;;;;;2.17;1.40;;;22.00;68.50;;;20.87;58.12;99915.47;10338937;28;96876;-90
2023/09/11 20:14:07;;;;;;;4.35;1.77;;;21.80;69.70;;;20.78;57.68;99916.91;10338904;28;97339;-90
2023/09/11 20:19:11;;;;;;;4.50;1.67;;;21.70;69.30;;;20.68;59.12;99909.44;10344127;28;97420;-90
2023/09/11 20:24:16;;;;;;;3.97;1.58;;;21.60;70.30;;;20.61;59.78;99910.66;10316476;28;96633;-91
2023/09/11 20:29:20;;;;;;;4.60;1.88;;;21.50;70.80;;;20.47;60.30;99905.53;10338738;28;96458;-91
2023/09/11 20:34:24;;;;;;;3.67;1.50;;;21.40;71.20;;;20.37;60.23;99905.28;10336888;28;97604;-91
2023/09/11 20:39:28;;;;;;;1.98;1.20;;;21.30;71.50;;;20.22;61.32;99913.09;10347673;28;97547;-90
2023/09/11 20:44:31;;;;;;;4.22;1.30;;;21.20;72.10;;;20.10;62.09;99901.50;10342412;28;97389;-92
2023/09/11 20:49:35;;;;;;;1.77;1.35;;;21.00;73.10;;;19.98;62.98;99912.31;10345051;28;96608;-92
2023/09/11 20:54:39;;;;;;;1.52;0.80;;;20.90;73.40;;;19.89;62.84;99917.22;10338749;28;96723;-92
2023/09/11 20:59:42;;;;;;;2.47;1.30;;;20.80;73.30;;;19.80;62.68;99913.25;10323465;28;96592;-94